LEASLECO

Guest
Details From LEAS - Asturias
To LECO - A Coruna
Flight Number -
Tags decoded
Created
Modified
Stats Distance 106 nm / 197 km
Max Altitude 0 ft / 0 m
Waypoints 4
Social Downloads 2
Likes 0
Share

Download

Looking for another format? Having issues loading an existing format? Contact us
Advertisement - Login to hide

Notes

Requested: LEAS MASIP R42 ROXER LECO Unmatched points: R42

Route

LEAS MASIP ROXER LECO

ID Type Via Altitude (ft/m) Position (lat/lon) Dist (leg/tot) Name
O LEAS APT - 0 / 0 43.56350 / -6.03467 - / 0 nm Asturias
MASIP FIX - 0 / 0 43.38944 / -6.65556 29 / 29 nm
ROXER FIX - 0 / 0 43.21844 / -7.36010 32 / 61 nm
O LECO APT - 0 / 0 43.30226 / -8.37709 44 / 106 nm A Coruna

Altitude Profile

Advertisement - Login to hide

LEAS

Details ICAO LEAS (OVD)
Name Asturias
Region Spain
Timezone Europe/Madrid (UTC+2.0)
Stats Elevation 414 ft / 126 m (AMSL)
Location 43.563600° -6.034630°
Runways 1
Magnetic Variation 1.000° W

METAR

LEAS 030500Z 10003KT 070V160 9999 OVC016 16/15 Q1023 NOSIG

Decode

TAF

TAF LEAS 030200Z 0303/0403 08009KT 9999 FEW010 TX23/0315Z TN13/0305Z PROB40 TEMPO 0303/0308 3000 BR BKN010 PROB40 TEMPO 0319/0324 3000 BR BKN010

Decode

Departure Runways

ID Width Length Bearing (true/mag) Surface Threshold Overrun Markings Lighting
11 148 ft / 45 m 7,228 ft / 2,203 m 108.09° / 109.09° ASPHALT 0 ft / 0 m 161 ft / 49 m PREC-APP CENTERLINE EDGE THRESHOLD REIL-OMNI
29 148 ft / 45 m 7,228 ft / 2,203 m 288.11° / 289.11° ASPHALT 0 ft / 0 m 151 ft / 46 m PREC-APP CENTERLINE EDGE THRESHOLD CALVERT-ILS TDZ REIL-OMNI

LECO

Details ICAO LECO (LCG)
Name A Coruña
Region Spain
Timezone Europe/Madrid (UTC+2.0)
Stats Elevation 330 ft / 101 m (AMSL)
Location 43.300700° -8.378350°
Runways 1
Magnetic Variation 1.749° W

METAR

LECO 030500Z 17003KT 0150 R21/1600U R03/0700D FG NSC 12/12 Q1021 NOSIG

Decode

TAF

TAF LECO 030200Z 0303/0403 VRB04KT 9999 FEW030 TX26/0313Z TN12/0307Z PROB30 TEMPO 0303/0308 3000 BR BKN010 PROB30 TEMPO 0303/0308 0350 FG VV001 TEMPO 0312/0316 34010KT PROB40 TEMPO 0400/0403 3000 BR BCFG BKN005

Decode

Destination Runways

ID Width Length Bearing (true/mag) Surface Threshold Overrun Markings Lighting
03 148 ft / 45 m 7,671 ft / 2,338 m 30.83° / 32.58° ASPHALT 0 ft / 0 m 95 ft / 29 m PREC-APP CENTERLINE EDGE THRESHOLD REIL-OMNI
21 148 ft / 45 m 7,671 ft / 2,338 m 210.84° / 212.59° ASPHALT 482 ft / 147 m 203 ft / 62 m PREC-APP CENTERLINE EDGE THRESHOLD ALSF-II TDZ REIL-OMNI

Approach Navaids

Runway Type Ident Frequency Range Bearing (true/mag) Slope Elevation
21 DME LCO 109.90 MHz 18 nm / 33 km - - 293 ft / 89 m (AMSL)
21 LOC-ILS LCO 109.90 MHz 18 nm / 33 km 210.84° / 212.59 ° - 330 ft / 101 m (AMSL)
21 GS LCO 109.90 MHz 10 nm / 19 km 210.84° / 212.59 ° 3.00° 330 ft / 101 m (AMSL)

Popular Alternatives